Time;durP1;ratioP1;P1;durP2;ratioP2;P2;SDS_P1;SDS_P2;PMS_P1;PMS_P2;Temp;Humidity;BMP_temperature;BMP_pressure;BME280_temperature;BME280_humidity;BME280_pressure;Samples;Min_cycle;Max_cycle;Signal;HPM_P1;HPM_P2
2022/10/10 00:00:46;;;;;;;14.32;2.50;;;;;;;;;;4918156;29;20439;-57
2022/10/10 00:03:14;;;;;;;27.63;3.40;;;;;;;;;;4917860;29;20076;-57
2022/10/10 00:05:43;;;;;;;26.40;2.95;;;;;;;;;;4918082;29;20032;-57
2022/10/10 00:08:10;;;;;;;20.23;3.45;;;;;;;;;;4917949;29;20103;-57
2022/10/10 00:10:38;;;;;;;30.55;3.33;;;;;;;;;;4917978;29;20028;-58
2022/10/10 00:13:05;;;;;;;25.23;3.67;;;;;;;;;;4917834;29;20115;-57
2022/10/10 00:15:32;;;;;;;28.42;3.83;;;;;;;;;;4916955;29;20509;-57
2022/10/10 00:17:59;;;;;;;25.05;3.60;;;;;;;;;;4917809;29;20032;-57
2022/10/10 00:20:26;;;;;;;13.43;2.90;;;;;;;;;;4917766;29;20028;-57
2022/10/10 00:22:53;;;;;;;12.05;2.80;;;;;;;;;;4917700;29;20123;-58
2022/10/10 00:25:20;;;;;;;16.15;3.58;;;;;;;;;;4917625;29;20032;-57
2022/10/10 00:27:47;;;;;;;22.45;4.70;;;;;;;;;;4917605;29;20035;-57
2022/10/10 00:30:14;;;;;;;18.00;2.90;;;;;;;;;;4917628;29;20032;-58
2022/10/10 00:32:41;;;;;;;24.05;3.80;;;;;;;;;;4917487;29;20053;-58
2022/10/10 00:35:08;;;;;;;17.88;3.63;;;;;;;;;;4917516;29;20511;-58
2022/10/10 00:37:35;;;;;;;24.73;4.47;;;;;;;;;;4917454;29;20107;-58
2022/10/10 00:40:03;;;;;;;18.35;3.50;;;;;;;;;;4917346;29;20024;-54
2022/10/10 00:42:29;;;;;;;21.25;3.92;;;;;;;;;;4917294;29;20028;-54
2022/10/10 00:45:14;;;;;;;26.92;4.03;;;;;;;;;;4917156;29;20419;-53
2022/10/10 00:47:41;;;;;;;22.33;4.00;;;;;;;;;;4917250;29;20047;-55
2022/10/10 00:50:08;;;;;;;19.30;3.40;;;;;;;;;;4917219;29;20032;-56
2022/10/10 00:52:35;;;;;;;19.40;4.00;;;;;;;;;;4917120;29;20039;-53
2022/10/10 00:55:02;;;;;;;17.40;3.60;;;;;;;;;;4917193;29;20040;-53
2022/10/10 00:57:29;;;;;;;22.05;3.67;;;;;;;;;;4917141;29;20031;-56
2022/10/10 00:59:56;;;;;;;16.58;3.55;;;;;;;;;;4917060;29;20024;-55
2022/10/10 01:02:23;;;;;;;19.88;4.10;;;;;;;;;;4916938;29;20056;-55
2022/10/10 01:04:50;;;;;;;22.80;4.55;;;;;;;;;;4916940;29;20036;-54
2022/10/10 01:07:19;;;;;;;27.75;4.70;;;;;;;;;;4917025;29;20076;-56
2022/10/10 01:09:46;;;;;;;20.17;4.03;;;;;;;;;;4916948;29;20031;-55
2022/10/10 01:12:20;;;;;;;21.30;4.25;;;;;;;;;;4916866;29;20032;-53
2022/10/10 01:14:49;;;;;;;22.15;3.75;;;;;;;;;;4916789;29;20020;-55
2022/10/10 01:17:21;;;;;;;26.70;4.70;;;;;;;;;;4916823;29;20038;-54
2022/10/10 01:20:10;;;;;;;20.23;4.00;;;;;;;;;;4916806;29;20394;-55
2022/10/10 01:23:10;;;;;;;16.58;3.80;;;;;;;;;;4916307;29;20092;-54
2022/10/10 01:25:37;;;;;;;25.02;4.60;;;;;;;;;;4915569;29;20048;-55
2022/10/10 01:28:06;;;;;;;25.42;4.82;;;;;;;;;;4916433;29;20490;-56
2022/10/10 01:30:34;;;;;;;22.33;4.65;;;;;;;;;;4917047;29;20035;-56
2022/10/10 01:33:06;;;;;;;21.67;4.13;;;;;;;;;;4916570;29;20059;-55
2022/10/10 01:35:51;;;;;;;23.00;4.57;;;;;;;;;;4916651;29;20087;-55
2022/10/10 01:38:24;;;;;;;20.40;4.47;;;;;;;;;;4916485;29;20042;-56
2022/10/10 01:40:57;;;;;;;21.58;5.05;;;;;;;;;;4916581;29;20040;-52
2022/10/10 01:43:25;;;;;;;24.02;4.45;;;;;;;;;;4930890;29;20028;-55
2022/10/10 01:45:53;;;;;;;23.10;5.20;;;;;;;;;;4916357;29;20048;-53
2022/10/10 01:48:23;;;;;;;20.05;4.50;;;;;;;;;;4931011;29;20031;-55
2022/10/10 01:51:08;;;;;;;27.80;4.60;;;;;;;;;;4916494;29;20028;-54
2022/10/10 01:53:53;;;;;;;21.40;4.88;;;;;;;;;;4916325;29;20020;-52
2022/10/10 01:56:29;;;;;;;24.38;5.03;;;;;;;;;;4916421;29;20048;-53
2022/10/10 01:58:59;;;;;;;21.50;4.93;;;;;;;;;;4916339;29;20024;-53
2022/10/10 02:01:29;;;;;;;20.63;4.97;;;;;;;;;;4930784;29;20028;-57
2022/10/10 02:04:08;;;;;;;24.58;4.80;;;;;;;;;;4916278;29;20032;-54
2022/10/10 02:06:53;;;;;;;21.83;5.38;;;;;;;;;;4916319;29;20031;-57
2022/10/10 02:09:25;;;;;;;18.20;5.05;;;;;;;;;;4916305;29;20391;-55
2022/10/10 02:11:53;;;;;;;28.30;5.30;;;;;;;;;;4916269;29;20107;-55
2022/10/10 02:14:26;;;;;;;19.77;5.40;;;;;;;;;;4930873;29;20036;-55
2022/10/10 02:16:54;;;;;;;23.90;5.18;;;;;;;;;;4916293;29;20390;-54
2022/10/10 02:19:23;;;;;;;18.23;5.03;;;;;;;;;;4916255;29;20781;-55
2022/10/10 02:21:51;;;;;;;23.58;4.93;;;;;;;;;;4916200;29;20024;-54
2022/10/10 02:24:19;;;;;;;17.52;4.63;;;;;;;;;;4916128;29;20060;-54
2022/10/10 02:26:48;;;;;;;25.83;5.20;;;;;;;;;;4916183;29;20028;-55
2022/10/10 02:29:26;;;;;;;23.17;5.45;;;;;;;;;;4916157;29;20494;-55
2022/10/10 02:31:53;;;;;;;31.52;6.00;;;;;;;;;;4916029;29;20032;-53
2022/10/10 02:34:23;;;;;;;22.30;4.88;;;;;;;;;;4915923;29;20451;-54
2022/10/10 02:36:53;;;;;;;16.98;5.50;;;;;;;;;;4916098;29;20031;-54
2022/10/10 02:39:22;;;;;;;23.92;5.47;;;;;;;;;;4917078;29;20079;-53
2022/10/10 02:41:49;;;;;;;16.45;4.95;;;;;;;;;;4919448;29;20028;-55
2022/10/10 02:44:17;;;;;;;20.73;5.20;;;;;;;;;;4919278;29;20059;-54
2022/10/10 02:46:44;;;;;;;22.88;5.25;;;;;;;;;;4919399;29;20108;-55
2022/10/10 02:49:11;;;;;;;16.40;5.45;;;;;;;;;;4919390;29;20028;-56
2022/10/10 02:51:39;;;;;;;20.30;5.30;;;;;;;;;;4919312;29;20048;-53
2022/10/10 02:54:06;;;;;;;24.63;5.38;;;;;;;;;;4919356;29;20032;-53
2022/10/10 02:56:33;;;;;;;20.20;5.95;;;;;;;;;;4933857;29;20119;-52
2022/10/10 02:59:00;;;;;;;25.55;5.65;;;;;;;;;;4933757;29;20036;-52
2022/10/10 03:01:27;;;;;;;18.55;4.60;;;;;;;;;;4919167;29;20404;-55
2022/10/10 03:03:54;;;;;;;20.98;5.25;;;;;;;;;;4919066;29;20116;-56
2022/10/10 03:06:21;;;;;;;24.20;6.03;;;;;;;;;;4919084;29;20028;-54
2022/10/10 03:08:48;;;;;;;23.98;5.65;;;;;;;;;;4918977;29;20028;-57
2022/10/10 03:11:18;;;;;;;22.40;5.47;;;;;;;;;;4918937;29;20028;-56
2022/10/10 03:13:45;;;;;;;19.90;5.38;;;;;;;;;;4918946;29;20036;-56
2022/10/10 03:16:12;;;;;;;24.92;6.20;;;;;;;;;;4918982;29;20029;-56
2022/10/10 03:18:39;;;;;;;33.95;6.53;;;;;;;;;;4918894;29;20031;-56
2022/10/10 03:21:06;;;;;;;20.73;5.00;;;;;;;;;;4919097;29;20030;-56
2022/10/10 03:23:34;;;;;;;22.85;5.38;;;;;;;;;;4918196;29;20518;-56
2022/10/10 03:26:01;;;;;;;20.50;5.47;;;;;;;;;;4916381;29;20047;-59
2022/10/10 03:28:28;;;;;;;27.08;5.05;;;;;;;;;;4917677;29;20483;-60
2022/10/10 03:30:55;;;;;;;27.20;5.90;;;;;;;;;;4917768;29;20064;-59
2022/10/10 03:33:22;;;;;;;25.95;5.75;;;;;;;;;;4917779;29;20024;-59
2022/10/10 03:35:49;;;;;;;22.55;5.30;;;;;;;;;;4917371;29;20036;-59
2022/10/10 03:38:16;;;;;;;26.98;5.85;;;;;;;;;;4916332;29;20084;-60
2022/10/10 03:40:44;;;;;;;30.45;5.57;;;;;;;;;;4917459;29;20071;-59
2022/10/10 03:43:12;;;;;;;27.67;5.53;;;;;;;;;;4917605;29;20026;-59
2022/10/10 03:45:41;;;;;;;20.98;4.72;;;;;;;;;;4917401;29;20141;-59
2022/10/10 03:48:09;;;;;;;25.60;4.70;;;;;;;;;;4917188;29;20523;-59
2022/10/10 03:50:36;;;;;;;27.65;4.95;;;;;;;;;;4917649;29;20103;-59
2022/10/10 03:53:03;;;;;;;34.00;4.50;;;;;;;;;;4917991;29;20035;-59
2022/10/10 03:55:30;;;;;;;22.83;4.57;;;;;;;;;;4916816;29;20396;-59
2022/10/10 03:57:58;;;;;;;20.10;5.03;;;;;;;;;;4917938;29;20028;-59
2022/10/10 04:00:25;;;;;;;26.77;5.13;;;;;;;;;;4918127;29;20051;-59
2022/10/10 04:02:52;;;;;;;22.92;5.20;;;;;;;;;;4917989;29;20028;-59
2022/10/10 04:05:19;;;;;;;20.52;4.60;;;;;;;;;;4916636;29;20072;-59
2022/10/10 04:07:46;;;;;;;15.98;4.25;;;;;;;;;;4916585;29;20025;-59
2022/10/10 04:10:13;;;;;;;23.15;4.78;;;;;;;;;;4917929;29;20028;-59
2022/10/10 04:12:40;;;;;;;22.42;4.57;;;;;;;;;;4917449;29;20028;-59
2022/10/10 04:15:07;;;;;;;20.40;4.53;;;;;;;;;;4917800;29;20119;-59
2022/10/10 04:17:34;;;;;;;15.95;4.47;;;;;;;;;;4917580;29;20039;-59
2022/10/10 04:20:01;;;;;;;20.25;4.43;;;;;;;;;;4917633;29;20115;-59
2022/10/10 04:22:28;;;;;;;16.25;4.07;;;;;;;;;;4917522;29;20032;-59
2022/10/10 04:24:55;;;;;;;16.38;4.30;;;;;;;;;;4916159;29;20067;-59
2022/10/10 04:27:22;;;;;;;17.60;4.00;;;;;;;;;;4917549;29;20024;-59
2022/10/10 04:29:49;;;;;;;15.32;4.32;;;;;;;;;;4917364;29;20043;-59
2022/10/10 04:32:16;;;;;;;15.52;3.70;;;;;;;;;;4917211;29;20032;-59
2022/10/10 04:34:43;;;;;;;15.07;3.97;;;;;;;;;;4915996;29;20042;-60
2022/10/10 04:37:10;;;;;;;14.10;3.78;;;;;;;;;;4917327;29;20039;-59
2022/10/10 04:39:37;;;;;;;11.10;3.65;;;;;;;;;;4917251;29;20024;-59
2022/10/10 04:42:05;;;;;;;12.07;3.47;;;;;;;;;;4916933;29;20633;-59
2022/10/10 04:44:32;;;;;;;16.92;4.22;;;;;;;;;;4917090;29;20072;-59
2022/10/10 04:46:59;;;;;;;14.68;3.35;;;;;;;;;;4931568;29;20032;-59
2022/10/10 04:49:26;;;;;;;9.63;3.28;;;;;;;;;;4917068;29;20032;-59
2022/10/10 04:51:53;;;;;;;18.13;3.95;;;;;;;;;;4917060;29;20526;-59
2022/10/10 04:54:20;;;;;;;14.07;3.53;;;;;;;;;;4917133;29;20032;-59
2022/10/10 04:56:47;;;;;;;11.20;3.33;;;;;;;;;;4917187;29;20035;-59
2022/10/10 04:59:14;;;;;;;13.63;4.00;;;;;;;;;;4917045;29;20039;-58
2022/10/10 05:01:41;;;;;;;13.88;3.75;;;;;;;;;;4930778;29;20483;-59
2022/10/10 05:04:08;;;;;;;10.77;3.00;;;;;;;;;;4916932;29;20059;-59
2022/10/10 05:06:35;;;;;;;20.27;3.67;;;;;;;;;;4916956;29;20028;-59
2022/10/10 05:09:02;;;;;;;16.23;3.60;;;;;;;;;;4916982;29;20032;-59
2022/10/10 05:11:29;;;;;;;18.73;3.40;;;;;;;;;;4916739;29;20538;-59
2022/10/10 05:13:56;;;;;;;11.90;3.30;;;;;;;;;;4916883;29;20104;-59
2022/10/10 05:16:23;;;;;;;12.93;3.83;;;;;;;;;;4916733;29;20024;-59
2022/10/10 05:18:50;;;;;;;12.77;3.47;;;;;;;;;;4916637;29;20036;-59
2022/10/10 05:21:17;;;;;;;14.43;3.50;;;;;;;;;;4916779;29;20039;-59
2022/10/10 05:23:44;;;;;;;11.02;3.33;;;;;;;;;;4916576;29;20051;-59
2022/10/10 05:26:11;;;;;;;8.57;3.47;;;;;;;;;;4916643;29;20027;-59
2022/10/10 05:28:38;;;;;;;13.40;3.03;;;;;;;;;;4916606;29;20092;-59
2022/10/10 05:31:05;;;;;;;10.02;3.28;;;;;;;;;;4915261;29;20486;-59
2022/10/10 05:33:33;;;;;;;9.52;2.70;;;;;;;;;;4916762;29;20028;-59
2022/10/10 05:36:04;;;;;;;8.52;3.50;;;;;;;;;;4916507;29;20038;-59
2022/10/10 05:38:32;;;;;;;8.18;2.60;;;;;;;;;;4916491;29;20071;-59
2022/10/10 05:40:59;;;;;;;7.57;3.10;;;;;;;;;;4916448;29;20119;-59
2022/10/10 05:43:26;;;;;;;8.45;2.92;;;;;;;;;;4916376;29;20081;-59
2022/10/10 05:45:53;;;;;;;7.70;2.63;;;;;;;;;;4916299;29;20411;-60
2022/10/10 05:48:20;;;;;;;13.00;2.95;;;;;;;;;;4916508;29;20058;-59
2022/10/10 05:50:48;;;;;;;9.77;2.65;;;;;;;;;;4916643;29;20391;-59
2022/10/10 05:53:15;;;;;;;7.93;2.83;;;;;;;;;;4916339;29;20032;-59
2022/10/10 05:55:45;;;;;;;7.85;2.58;;;;;;;;;;4916387;29;20035;-59
2022/10/10 05:58:13;;;;;;;7.70;2.72;;;;;;;;;;4916389;29;20095;-59
2022/10/10 06:00:44;;;;;;;10.25;2.85;;;;;;;;;;4916159;29;20024;-59
2022/10/10 06:03:14;;;;;;;12.50;2.95;;;;;;;;;;4915568;29;20047;-59
2022/10/10 06:05:41;;;;;;;8.85;2.55;;;;;;;;;;4916108;29;20050;-59
2022/10/10 06:08:08;;;;;;;8.60;2.42;;;;;;;;;;4930478;29;20048;-60
2022/10/10 06:10:36;;;;;;;7.97;2.53;;;;;;;;;;4916293;29;20084;-60
2022/10/10 06:13:03;;;;;;;8.77;2.60;;;;;;;;;;4916701;29;20039;-60
2022/10/10 06:15:30;;;;;;;8.38;2.60;;;;;;;;;;4934526;29;20028;-60
2022/10/10 06:17:57;;;;;;;9.25;2.85;;;;;;;;;;4919906;29;20103;-60
2022/10/10 06:20:24;;;;;;;6.82;2.45;;;;;;;;;;4919883;29;20487;-60
2022/10/10 06:22:51;;;;;;;8.82;2.45;;;;;;;;;;4919517;29;20036;-60
2022/10/10 06:25:18;;;;;;;6.72;3.00;;;;;;;;;;4919677;29;20064;-60
2022/10/10 06:27:45;;;;;;;4.57;2.17;;;;;;;;;;4919711;29;20036;-60
2022/10/10 06:30:12;;;;;;;9.85;2.50;;;;;;;;;;4919622;29;20110;-60
2022/10/10 06:32:39;;;;;;;7.43;2.53;;;;;;;;;;4919622;29;20080;-60
2022/10/10 06:35:06;;;;;;;8.18;2.17;;;;;;;;;;4919620;29;20482;-60
2022/10/10 06:37:33;;;;;;;8.73;2.45;;;;;;;;;;4919553;29;20031;-60
2022/10/10 06:40:00;;;;;;;7.07;2.38;;;;;;;;;;4919518;29;20063;-60
2022/10/10 06:42:27;;;;;;;12.65;2.95;;;;;;;;;;4933901;29;20436;-59
2022/10/10 06:44:54;;;;;;;9.43;2.45;;;;;;;;;;4919158;29;20156;-59
2022/10/10 06:47:21;;;;;;;6.05;2.15;;;;;;;;;;4933945;29;20042;-59
2022/10/10 06:49:48;;;;;;;8.25;2.50;;;;;;;;;;4919315;29;20032;-59
2022/10/10 06:52:15;;;;;;;7.95;2.50;;;;;;;;;;4919198;29;20040;-59
2022/10/10 06:54:42;;;;;;;5.05;2.10;;;;;;;;;;4919238;29;20036;-59
2022/10/10 06:57:09;;;;;;;5.57;1.83;;;;;;;;;;4919183;29;20028;-59
2022/10/10 06:59:36;;;;;;;6.07;2.00;;;;;;;;;;4919207;29;20390;-59
2022/10/10 07:02:03;;;;;;;5.38;2.30;;;;;;;;;;4933659;29;20039;-59
2022/10/10 07:04:30;;;;;;;6.50;2.03;;;;;;;;;;4918956;29;20513;-59
2022/10/10 07:06:57;;;;;;;8.85;2.40;;;;;;;;;;4933649;29;20047;-59
2022/10/10 07:09:24;;;;;;;5.72;2.00;;;;;;;;;;4919063;29;20487;-59
2022/10/10 07:11:51;;;;;;;8.27;2.33;;;;;;;;;;4918840;29;20490;-59
2022/10/10 07:14:18;;;;;;;5.55;2.00;;;;;;;;;;4918960;29;20482;-59
2022/10/10 07:16:45;;;;;;;6.07;2.08;;;;;;;;;;4918858;29;20052;-59
2022/10/10 07:19:12;;;;;;;6.45;2.38;;;;;;;;;;4918815;29;20035;-59
2022/10/10 07:21:39;;;;;;;6.88;2.08;;;;;;;;;;4918615;29;20024;-59
2022/10/10 07:24:06;;;;;;;6.20;1.88;;;;;;;;;;4918697;29;20153;-59
2022/10/10 07:26:37;;;;;;;8.88;2.20;;;;;;;;;;4918065;29;20028;-60
2022/10/10 07:29:05;;;;;;;9.55;2.40;;;;;;;;;;4918501;29;20119;-60
2022/10/10 07:31:35;;;;;;;7.05;2.10;;;;;;;;;;4917292;29;20036;-60
2022/10/10 07:34:02;;;;;;;6.05;1.80;;;;;;;;;;4918573;29;20024;-60
2022/10/10 07:36:29;;;;;;;6.25;2.13;;;;;;;;;;4917281;29;20119;-59
2022/10/10 07:38:56;;;;;;;5.63;1.98;;;;;;;;;;4918484;29;20394;-59
2022/10/10 07:41:23;;;;;;;4.78;1.65;;;;;;;;;;4918276;29;20111;-59
2022/10/10 07:43:54;;;;;;;6.40;1.95;;;;;;;;;;4918149;29;20028;-59
2022/10/10 07:46:21;;;;;;;5.73;1.80;;;;;;;;;;4918404;29;20032;-59
2022/10/10 07:48:48;;;;;;;4.22;1.73;;;;;;;;;;4918301;29;20272;-59
2022/10/10 07:51:16;;;;;;;7.65;2.13;;;;;;;;;;4918102;29;20039;-59
2022/10/10 07:53:43;;;;;;;4.13;1.85;;;;;;;;;;4918234;29;20395;-59
2022/10/10 07:56:10;;;;;;;5.68;1.83;;;;;;;;;;4918130;29;20025;-59
2022/10/10 07:58:37;;;;;;;4.90;1.75;;;;;;;;;;4918289;29;20394;-60
2022/10/10 08:01:05;;;;;;;5.95;1.83;;;;;;;;;;4918006;29;20063;-60
2022/10/10 08:03:32;;;;;;;4.13;1.95;;;;;;;;;;4918021;29;20087;-60
2022/10/10 08:06:02;;;;;;;6.45;1.90;;;;;;;;;;4917901;29;20032;-59
2022/10/10 08:08:29;;;;;;;3.80;1.65;;;;;;;;;;4918214;29;20036;-59
2022/10/10 08:10:57;;;;;;;4.68;1.65;;;;;;;;;;4916601;29;20411;-59
2022/10/10 08:13:24;;;;;;;4.43;1.95;;;;;;;;;;4917772;29;20040;-59
2022/10/10 08:15:51;;;;;;;9.13;2.05;;;;;;;;;;4916636;29;20039;-59
2022/10/10 08:18:18;;;;;;;5.25;1.98;;;;;;;;;;4917712;29;20148;-59
2022/10/10 08:20:45;;;;;;;6.22;1.70;;;;;;;;;;4917561;29;20031;-59
2022/10/10 08:23:12;;;;;;;2.83;1.52;;;;;;;;;;4917777;29;20040;-59
2022/10/10 08:25:39;;;;;;;3.67;1.48;;;;;;;;;;4917553;29;20503;-59
2022/10/10 08:28:06;;;;;;;3.65;1.50;;;;;;;;;;4917556;29;20028;-59
2022/10/10 08:30:33;;;;;;;4.93;1.83;;;;;;;;;;4917564;29;20039;-59
2022/10/10 08:33:00;;;;;;;4.28;1.67;;;;;;;;;;4917372;29;20427;-59
2022/10/10 08:35:27;;;;;;;4.95;2.20;;;;;;;;;;4917359;29;20443;-59
2022/10/10 08:37:54;;;;;;;3.90;1.55;;;;;;;;;;4916801;29;20120;-59
2022/10/10 08:40:22;;;;;;;4.13;1.50;;;;;;;;;;4917302;29;20123;-59
2022/10/10 08:42:54;;;;;;;5.68;1.75;;;;;;;;;;4917472;29;20111;-59
2022/10/10 08:45:24;;;;;;;3.72;1.50;;;;;;;;;;4915834;29;20470;-59
2022/10/10 08:48:03;;;;;;;3.35;1.50;;;;;;;;;;4917280;29;20026;-59
2022/10/10 08:50:29;;;;;;;4.75;1.83;;;;;;;;;;4917225;29;20039;-59
2022/10/10 08:53:16;;;;;;;4.60;1.60;;;;;;;;;;4917052;29;20029;-59
2022/10/10 08:55:44;;;;;;;4.35;1.63;;;;;;;;;;4917076;29;20032;-59
2022/10/10 08:58:11;;;;;;;7.10;1.60;;;;;;;;;;4917136;29;20036;-59
2022/10/10 09:00:40;;;;;;;2.28;1.40;;;;;;;;;;4916947;29;20103;-59
2022/10/10 09:03:27;;;;;;;4.25;1.50;;;;;;;;;;4916855;29;20071;-59
2022/10/10 09:06:12;;;;;;;3.63;1.40;;;;;;;;;;4917008;29;20036;-59
2022/10/10 09:08:41;;;;;;;5.63;1.70;;;;;;;;;;4916881;29;20039;-59
2022/10/10 09:11:26;;;;;;;3.90;1.90;;;;;;;;;;4915517;29;20038;-59
2022/10/10 09:14:13;;;;;;;5.38;1.42;;;;;;;;;;4916827;29;20028;-59
2022/10/10 09:16:56;;;;;;;4.63;1.48;;;;;;;;;;4916696;29;20032;-59
2022/10/10 09:19:36;;;;;;;2.60;1.23;;;;;;;;;;4916716;29;20055;-59
2022/10/10 09:22:05;;;;;;;5.57;1.40;;;;;;;;;;4916701;29;20031;-59
2022/10/10 09:24:52;;;;;;;5.97;1.52;;;;;;;;;;4916620;29;20032;-59
2022/10/10 09:27:32;;;;;;;2.55;1.33;;;;;;;;;;4916665;29;20111;-59
2022/10/10 09:30:02;;;;;;;3.70;1.17;;;;;;;;;;4916646;29;20102;-59
2022/10/10 09:32:40;;;;;;;4.15;1.38;;;;;;;;;;4916482;29;20036;-59
2022/10/10 09:35:19;;;;;;;2.30;1.20;;;;;;;;;;4916642;29;20044;-59
2022/10/10 09:37:48;;;;;;;4.03;1.60;;;;;;;;;;4916486;29;20035;-59
2022/10/10 09:40:23;;;;;;;3.38;1.42;;;;;;;;;;4916585;29;20107;-59
2022/10/10 09:42:50;;;;;;;4.60;1.40;;;;;;;;;;4916472;29;20061;-58
2022/10/10 09:45:19;;;;;;;2.92;1.48;;;;;;;;;;4916203;29;20063;-59
2022/10/10 09:47:48;;;;;;;2.50;1.23;;;;;;;;;;4917231;29;20028;-59
2022/10/10 09:50:15;;;;;;;5.28;1.20;;;;;;;;;;4922715;29;20036;-59
2022/10/10 09:52:48;;;;;;;2.58;1.40;;;;;;;;;;4922662;29;20035;-59
2022/10/10 09:55:14;;;;;;;;;;;;;;;;;;4923133;29;20040;-59
2022/10/10 09:57:42;;;;;;;4.13;1.30;;;;;;;;;;4922767;29;19911;-60
2022/10/10 10:00:29;;;;;;;8.00;1.30;;;;;;;;;;4922513;29;20024;-59
2022/10/10 10:03:16;;;;;;;5.47;1.30;;;;;;;;;;4911630;29;20111;-59
2022/10/10 10:06:02;;;;;;;3.78;1.50;;;;;;;;;;4922371;29;20558;-59
2022/10/10 10:08:33;;;;;;;2.92;1.40;;;;;;;;;;4922484;29;20047;-59
2022/10/10 10:11:00;;;;;;;2.60;1.27;;;;;;;;;;4922556;29;20036;-59
2022/10/10 10:13:31;;;;;;;2.67;1.23;;;;;;;;;;4922485;29;20020;-59
2022/10/10 10:16:00;;;;;;;2.70;1.25;;;;;;;;;;4922540;29;20024;-59
2022/10/10 10:18:28;;;;;;;3.38;1.35;;;;;;;;;;4922211;29;20039;-59
2022/10/10 10:21:09;;;;;;;3.97;1.45;;;;;;;;;;4922350;29;20067;-60
2022/10/10 10:23:41;;;;;;;3.72;1.50;;;;;;;;;;4921538;29;20095;-60
2022/10/10 10:26:35;;;;;;;3.35;1.27;;;;;;;;;;4922068;29;20094;-60
2022/10/10 10:29:01;;;;;;;3.33;1.40;;;;;;;;;;4913442;29;20040;-60
2022/10/10 10:31:47;;;;;;;4.70;1.63;;;;;;;;;;4921614;29;20024;-59
2022/10/10 10:34:14;;;;;;;4.65;1.50;;;;;;;;;;4920954;29;20080;-60
2022/10/10 10:36:44;;;;;;;6.03;1.65;;;;;;;;;;4918798;29;20095;-59
2022/10/10 10:39:20;;;;;;;7.05;2.05;;;;;;;;;;4922562;29;20147;-60
2022/10/10 10:41:55;;;;;;;5.40;1.55;;;;;;;;;;4919694;29;20381;-60
2022/10/10 10:44:39;;;;;;;6.53;1.60;;;;;;;;;;4921000;29;20456;-58
2022/10/10 10:47:12;;;;;;;4.18;1.70;;;;;;;;;;4921868;29;20406;-60
2022/10/10 10:49:38;;;;;;;;;;;;;;;;;;4922646;29;20546;-59
2022/10/10 10:52:10;;;;;;;4.05;1.30;;;;;;;;;;4922002;29;20006;-60
2022/10/10 10:54:51;;;;;;;7.30;1.67;;;;;;;;;;4922054;29;20123;-60
2022/10/10 10:57:36;;;;;;;5.85;1.55;;;;;;;;;;4922140;29;20032;-60
2022/10/10 11:00:10;;;;;;;4.78;1.40;;;;;;;;;;4919748;29;20040;-60
2022/10/10 11:02:40;;;;;;;5.68;1.35;;;;;;;;;;4919010;29;20044;-60
2022/10/10 11:05:07;;;;;;;3.05;1.05;;;;;;;;;;4919046;29;20055;-60
2022/10/10 11:07:57;;;;;;;3.72;1.33;;;;;;;;;;4919091;29;20566;-60
2022/10/10 11:10:43;;;;;;;4.05;1.48;;;;;;;;;;4917307;29;20514;-59
2022/10/10 11:13:28;;;;;;;6.15;1.38;;;;;;;;;;4918019;29;20543;-60
2022/10/10 11:16:03;;;;;;;5.75;1.40;;;;;;;;;;4918877;29;20108;-60
2022/10/10 11:18:36;;;;;;;4.05;1.13;;;;;;;;;;4918401;29;20225;-60
2022/10/10 11:21:06;;;;;;;6.05;1.80;;;;;;;;;;4918702;29;20091;-59
2022/10/10 11:23:55;;;;;;;6.10;1.50;;;;;;;;;;4918745;29;20049;-59
2022/10/10 11:26:31;;;;;;;6.28;1.17;;;;;;;;;;4918682;29;20091;-59
2022/10/10 11:29:02;;;;;;;4.38;1.35;;;;;;;;;;4918643;29;20024;-60
2022/10/10 11:31:38;;;;;;;5.93;1.37;;;;;;;;;;4918528;29;20483;-60
2022/10/10 11:34:12;;;;;;;8.57;1.42;;;;;;;;;;4918412;29;20064;-60
2022/10/10 11:36:42;;;;;;;3.17;1.10;;;;;;;;;;4918316;29;20115;-59
2022/10/10 11:39:18;;;;;;;1.70;1.00;;;;;;;;;;4918457;29;20024;-59
2022/10/10 11:41:49;;;;;;;3.22;1.30;;;;;;;;;;4918346;29;20056;-59
2022/10/10 11:44:19;;;;;;;6.40;1.35;;;;;;;;;;4918322;29;20051;-59
2022/10/10 11:46:46;;;;;;;5.07;1.45;;;;;;;;;;4918437;29;20025;-59
2022/10/10 11:49:14;;;;;;;2.55;0.88;;;;;;;;;;4918353;29;20039;-59
2022/10/10 11:51:59;;;;;;;7.95;1.52;;;;;;;;;;4918164;29;20032;-59
2022/10/10 11:54:29;;;;;;;2.88;1.10;;;;;;;;;;4918161;29;20068;-59
2022/10/10 11:57:00;;;;;;;4.95;1.38;;;;;;;;;;4918211;29;20079;-59
2022/10/10 11:59:37;;;;;;;2.67;1.00;;;;;;;;;;4918100;29;20391;-59
2022/10/10 12:02:13;;;;;;;4.82;1.30;;;;;;;;;;4918002;29;20032;-59
2022/10/10 12:04:40;;;;;;;5.55;1.33;;;;;;;;;;4917969;29;20485;-60
2022/10/10 12:07:36;;;;;;;4.78;1.30;;;;;;;;;;4918021;29;20079;-59
2022/10/10 12:10:09;;;;;;;2.30;1.00;;;;;;;;;;4917393;29;20070;-59
2022/10/10 12:12:39;;;;;;;4.35;1.23;;;;;;;;;;4917707;29;20028;-59
2022/10/10 12:15:09;;;;;;;3.03;1.23;;;;;;;;;;4917819;29;20068;-59
2022/10/10 12:17:39;;;;;;;4.50;1.30;;;;;;;;;;4917738;29;20032;-59
2022/10/10 12:20:29;;;;;;;5.57;1.13;;;;;;;;;;4917772;29;20020;-60
2022/10/10 12:23:18;;;;;;;3.33;1.30;;;;;;;;;;4916736;29;20490;-60
2022/10/10 12:25:46;;;;;;;4.25;1.30;;;;;;;;;;4908521;29;20546;-59
2022/10/10 12:28:13;;;;;;;6.13;1.50;;;;;;;;;;4906777;29;20035;-59
2022/10/10 12:31:09;;;;;;;2.08;1.13;;;;;;;;;;4907644;29;20070;-60
2022/10/10 12:33:36;;;;;;;1.95;0.85;;;;;;;;;;4893890;29;20578;-59
2022/10/10 12:36:35;;;;;;;2.60;1.10;;;;;;;;;;4907820;29;20032;-59
2022/10/10 12:39:05;;;;;;;4.78;1.30;;;;;;;;;;4892837;29;20036;-60
2022/10/10 12:41:50;;;;;;;3.30;1.23;;;;;;;;;;4908206;29;20127;-59
2022/10/10 12:44:22;;;;;;;4.30;1.10;;;;;;;;;;4908046;29;20136;-59
2022/10/10 12:47:08;;;;;;;3.65;1.27;;;;;;;;;;4908336;29;20112;-60
2022/10/10 12:49:35;;;;;;;2.63;1.05;;;;;;;;;;4908350;29;20074;-60
2022/10/10 12:52:02;;;;;;;4.35;1.25;;;;;;;;;;4907456;29;20029;-59
2022/10/10 12:54:37;;;;;;;4.72;1.20;;;;;;;;;;4906057;29;20028;-59
2022/10/10 12:57:07;;;;;;;2.63;0.77;;;;;;;;;;4906677;29;20063;-59
2022/10/10 12:59:35;;;;;;;4.18;1.13;;;;;;;;;;4908666;29;20025;-59
2022/10/10 13:02:09;;;;;;;4.03;1.27;;;;;;;;;;4906554;29;20490;-59
2022/10/10 13:04:37;;;;;;;3.97;1.33;;;;;;;;;;4914916;29;20072;-60
2022/10/10 13:07:04;;;;;;;4.45;1.35;;;;;;;;;;4915701;29;20517;-60
2022/10/10 13:09:33;;;;;;;4.93;1.02;;;;;;;;;;4916032;29;20444;-59
2022/10/10 13:12:04;;;;;;;3.08;0.93;;;;;;;;;;4915005;29;20095;-60
2022/10/10 13:14:45;;;;;;;4.03;1.30;;;;;;;;;;4915615;29;20517;-60
2022/10/10 13:17:40;;;;;;;5.05;1.27;;;;;;;;;;4910516;29;20165;-59
2022/10/10 13:20:25;;;;;;;3.05;1.27;;;;;;;;;;4908600;29;20048;-60
2022/10/10 13:22:52;;;;;;;4.50;1.40;;;;;;;;;;4915951;29;20028;-59
2022/10/10 13:25:19;;;;;;;5.13;1.30;;;;;;;;;;4916546;29;20035;-59
2022/10/10 13:27:46;;;;;;;3.95;0.93;;;;;;;;;;4916809;29;20493;-59
2022/10/10 13:30:20;;;;;;;5.20;1.20;;;;;;;;;;4915122;29;20024;-59
2022/10/10 13:32:47;;;;;;;6.10;1.25;;;;;;;;;;4916409;29;20024;-59
2022/10/10 13:35:20;;;;;;;6.13;1.30;;;;;;;;;;4916413;29;20241;-59
2022/10/10 13:37:58;;;;;;;3.83;1.17;;;;;;;;;;4916398;29;20052;-59
2022/10/10 13:40:25;;;;;;;7.80;1.33;;;;;;;;;;4916272;29;20032;-59
2022/10/10 13:42:53;;;;;;;1.60;0.90;;;;;;;;;;4916380;29;20036;-59
2022/10/10 13:45:23;;;;;;;3.13;1.02;;;;;;;;;;4915676;29;20406;-60
2022/10/10 13:47:51;;;;;;;4.00;1.23;;;;;;;;;;4914116;29;20032;-59
2022/10/10 13:50:22;;;;;;;4.70;1.00;;;;;;;;;;4915839;29;20083;-60
2022/10/10 13:52:49;;;;;;;4.68;1.50;;;;;;;;;;4915954;29;20032;-60
2022/10/10 13:55:16;;;;;;;7.28;1.13;;;;;;;;;;4915774;29;20024;-61
2022/10/10 13:57:43;;;;;;;12.63;1.50;;;;;;;;;;4899257;29;20119;-60
2022/10/10 14:00:17;;;;;;;8.85;1.38;;;;;;;;;;4897035;29;20041;-59
2022/10/10 14:02:44;;;;;;;3.85;1.05;;;;;;;;;;4910294;29;20078;-61
2022/10/10 14:05:37;;;;;;;8.00;1.25;;;;;;;;;;4915600;29;20040;-59
2022/10/10 14:08:04;;;;;;;9.32;1.38;;;;;;;;;;4913623;29;20077;-59
2022/10/10 14:10:35;;;;;;;9.75;1.40;;;;;;;;;;4904129;29;20116;-62
2022/10/10 14:13:02;;;;;;;13.60;1.38;;;;;;;;;;4913237;29;20505;-60
2022/10/10 14:15:41;;;;;;;7.38;1.20;;;;;;;;;;4915943;29;20478;-60
2022/10/10 14:18:28;;;;;;;7.53;1.33;;;;;;;;;;4914194;29;20060;-61
2022/10/10 14:20:55;;;;;;;5.55;1.30;;;;;;;;;;4914259;29;20044;-59
2022/10/10 14:23:22;;;;;;;6.40;1.60;;;;;;;;;;4915770;29;20067;-60
2022/10/10 14:25:49;;;;;;;9.38;1.33;;;;;;;;;;4915485;29;20450;-60
2022/10/10 14:28:21;;;;;;;4.10;1.17;;;;;;;;;;4930264;29;20115;-60
2022/10/10 14:30:48;;;;;;;11.93;1.58;;;;;;;;;;4915530;29;20032;-59
2022/10/10 14:33:16;;;;;;;10.35;1.50;;;;;;;;;;4915287;29;20044;-59
2022/10/10 14:35:43;;;;;;;16.05;1.70;;;;;;;;;;4917249;29;20044;-59
2022/10/10 14:38:12;;;;;;;11.57;2.28;;;;;;;;;;4919376;29;20056;-60
2022/10/10 14:40:41;;;;;;;17.67;2.50;;;;;;;;;;4919133;29;20040;-59
2022/10/10 14:43:08;;;;;;;12.07;2.38;;;;;;;;;;4915061;29;20080;-61
2022/10/10 14:45:35;;;;;;;13.65;1.95;;;;;;;;;;4908830;29;20059;-59
2022/10/10 14:48:02;;;;;;;14.15;2.03;;;;;;;;;;4904254;29;20395;-60
2022/10/10 14:50:32;;;;;;;20.48;2.60;;;;;;;;;;4905049;29;20032;-59
2022/10/10 14:52:59;;;;;;;14.25;2.60;;;;;;;;;;4911926;29;20043;-59
2022/10/10 14:55:26;;;;;;;19.23;2.28;;;;;;;;;;4918933;29;20126;-58
2022/10/10 14:57:53;;;;;;;14.35;2.78;;;;;;;;;;4918894;29;20058;-59